Time;durP1;ratioP1;P1;durP2;ratioP2;P2;SDS_P1;SDS_P2;PMS_P1;PMS_P2;Temp;Humidity;BMP_temperature;BMP_pressure;BME280_temperature;BME280_humidity;BME280_pressure;Samples;Min_cycle;Max_cycle;Signal;HPM_P1;HPM_P2
2022/01/26 00:06:39;;;;;;;9.75;4.15;;;22.10;58.40;;;;;;4988056;28;20426;-72
2022/01/26 00:09:06;;;;;;;8.98;4.43;;;22.10;58.40;;;;;;4986914;28;20120;-71
2022/01/26 00:11:33;;;;;;;7.50;3.95;;;22.10;58.60;;;;;;4981264;28;20033;-71
2022/01/26 00:14:01;;;;;;;7.45;4.10;;;22.10;58.80;;;;;;4977843;28;20406;-71
2022/01/26 00:16:37;;;;;;;7.43;3.95;;;22.10;58.60;;;;;;4991552;28;20064;-71
2022/01/26 00:19:05;;;;;;;8.52;3.83;;;22.10;58.80;;;;;;4992470;28;20109;-72
2022/01/26 00:21:36;;;;;;;6.57;3.88;;;22.10;58.90;;;;;;4978053;28;20026;-72
2022/01/26 00:29:11;;;;;;;19.88;4.35;;;22.00;59.10;;;;;;4995808;28;20026;-71
2022/01/26 00:40:28;;;;;;;10.50;4.05;;;22.00;59.00;;;;;;4994217;28;20038;-71
2022/01/26 00:42:58;;;;;;;18.33;4.72;;;22.00;59.10;;;;;;4994426;28;20105;-71
2022/01/26 00:45:27;;;;;;;18.27;3.83;;;22.10;59.20;;;;;;4977113;28;20033;-71
2022/01/26 00:47:53;;;;;;;17.58;3.72;;;22.00;59.20;;;;;;4994227;28;20027;-71
2022/01/26 00:50:19;;;;;;;17.70;4.30;;;22.10;59.30;;;;;;4992517;28;20117;-71
2022/01/26 00:52:52;;;;;;;12.27;4.35;;;22.10;59.20;;;;;;4994377;28;20109;-72
2022/01/26 00:55:19;;;;;;;8.25;3.80;;;22.10;59.30;;;;;;4994055;28;20092;-71
2022/01/26 00:57:45;;;;;;;8.85;3.72;;;22.10;59.20;;;;;;4960207;28;20483;-72
2022/01/26 01:00:18;;;;;;;14.65;3.97;;;22.10;59.20;;;;;;4992624;28;20054;-72
2022/01/26 01:02:44;;;;;;;11.65;3.80;;;22.10;59.20;;;;;;4976820;28;20042;-72
2022/01/26 01:05:20;;;;;;;10.15;4.47;;;22.10;59.30;;;;;;4993887;28;20026;-71
2022/01/26 01:07:49;;;;;;;9.75;3.97;;;22.10;59.20;;;;;;4994022;28;20037;-71
2022/01/26 01:10:18;;;;;;;13.60;4.03;;;22.00;59.00;;;;;;4992730;28;20034;-72
2022/01/26 01:12:44;;;;;;;7.07;3.53;;;22.10;59.10;;;;;;4992635;28;20567;-71
2022/01/26 01:15:12;;;;;;;9.50;3.90;;;22.00;59.00;;;;;;4992929;28;20069;-72
2022/01/26 01:17:44;;;;;;;8.82;3.78;;;22.00;59.20;;;;;;4993694;28;20035;-71
2022/01/26 01:20:37;;;;;;;9.98;4.00;;;22.10;59.30;;;;;;4993326;28;20026;-72
2022/01/26 01:28:48;;;;;;;13.80;3.60;;;22.00;59.30;;;;;;4956702;28;20031;-71
2022/01/26 01:31:29;;;;;;;9.00;3.90;;;22.00;59.20;;;;;;4993422;28;20433;-72
2022/01/26 01:33:55;;;;;;;8.63;3.35;;;22.10;59.30;;;;;;4991970;28;20050;-72
2022/01/26 01:36:22;;;;;;;7.93;3.78;;;22.00;59.20;;;;;;4992526;28;20503;-72
2022/01/26 01:38:48;;;;;;;7.20;3.58;;;22.00;59.10;;;;;;5023793;22;20045;-69
2022/01/26 01:41:14;;;;;;;9.25;3.80;;;22.00;59.20;;;;;;5031635;28;20492;-69
2022/01/26 01:43:39;;;;;;;7.57;3.40;;;22.00;59.30;;;;;;5032769;28;20109;-69
2022/01/26 01:46:06;;;;;;;9.70;3.42;;;22.00;59.20;;;;;;5032656;28;20112;-69
2022/01/26 01:48:33;;;;;;;6.30;3.47;;;22.00;59.30;;;;;;5031651;28;20041;-69
2022/01/26 01:51:04;;;;;;;6.85;3.50;;;22.00;59.30;;;;;;5032411;28;20034;-69
2022/01/26 01:56:04;;;;;;;7.72;3.78;;;22.00;59.30;;;;;;5032713;28;20030;-69
2022/01/26 01:58:30;;;;;;;7.20;3.30;;;22.00;59.50;;;;;;5032374;28;20441;-69
2022/01/26 02:00:56;;;;;;;7.68;3.28;;;22.00;59.50;;;;;;5027890;28;20057;-69
2022/01/26 02:03:24;;;;;;;5.70;3.15;;;22.00;59.40;;;;;;5032161;28;20075;-69
2022/01/26 02:05:49;;;;;;;8.02;3.50;;;22.10;59.40;;;;;;5032778;28;20053;-69
2022/01/26 02:08:15;;;;;;;7.70;3.60;;;22.10;59.50;;;;;;5032565;28;20057;-69
2022/01/26 02:10:42;;;;;;;7.95;3.30;;;22.10;59.40;;;;;;5031732;28;20486;-69
2022/01/26 02:13:26;;;;;;;7.28;3.20;;;22.10;59.50;;;;;;5032252;28;20497;-69
2022/01/26 02:21:11;;;;;;;6.75;3.25;;;22.10;59.50;;;;;;5031278;28;20021;-69
2022/01/26 02:54:24;;;;;;;5.10;3.05;;;22.00;59.90;;;;;;5030520;28;20043;-69
2022/01/26 02:57:00;;;;;;;5.65;3.17;;;22.10;59.80;;;;;;5031504;28;20033;-68
2022/01/26 02:59:48;;;;;;;4.30;2.70;;;22.00;59.80;;;;;;5032762;28;20033;-68
2022/01/26 03:02:26;;;;;;;7.68;3.17;;;22.00;59.90;;;;;;5038272;28;20026;-69
2022/01/26 03:04:55;;;;;;;6.22;3.33;;;22.00;59.90;;;;;;5038468;28;20021;-69
2022/01/26 03:07:36;;;;;;;5.05;3.05;;;22.10;60.10;;;;;;5038038;28;20025;-69
2022/01/26 03:10:11;;;;;;;6.28;3.17;;;22.10;60.00;;;;;;5036693;28;20428;-68
2022/01/26 03:12:49;;;;;;;5.13;2.58;;;22.10;60.00;;;;;;5038260;28;20406;-68
2022/01/26 03:15:27;;;;;;;3.90;2.55;;;22.10;60.00;;;;;;5037047;28;20392;-69
2022/01/26 03:20:29;;;;;;;4.82;2.78;;;22.10;60.00;;;;;;5037887;28;20033;-69
2022/01/26 03:28:38;;;;;;;9.07;3.22;;;22.10;59.90;;;;;;5038071;28;20036;-69
2022/01/26 03:36:10;;;;;;;6.50;2.90;;;22.10;59.90;;;;;;5038079;28;20025;-69
2022/01/26 03:38:43;;;;;;;5.20;2.75;;;22.10;60.00;;;;;;5037662;28;20049;-69
2022/01/26 03:41:19;;;;;;;5.25;2.90;;;22.10;60.00;;;;;;5037757;28;20021;-69
2022/01/26 03:43:44;;;;;;;5.82;3.00;;;22.10;60.00;;;;;;5038048;28;20025;-69
2022/01/26 03:46:10;;;;;;;6.72;3.38;;;22.10;60.00;;;;;;5037827;28;20025;-69
2022/01/26 03:48:36;;;;;;;9.15;3.47;;;22.00;60.00;;;;;;5037829;28;20394;-69
2022/01/26 03:51:02;;;;;;;7.30;2.80;;;22.10;60.00;;;;;;5037391;28;20029;-69
2022/01/26 03:53:28;;;;;;;5.35;3.30;;;22.00;59.90;;;;;;5037753;28;20446;-69
2022/01/26 03:55:54;;;;;;;5.57;2.53;;;22.10;60.70;;;;;;5036779;28;20033;-69
2022/01/26 03:58:19;;;;;;;6.00;3.20;;;22.10;60.00;;;;;;5037513;28;20148;-69
2022/01/26 04:00:45;;;;;;;6.22;2.92;;;22.10;60.00;;;;;;5037510;28;20397;-69
2022/01/26 04:03:13;;;;;;;6.28;2.80;;;22.10;60.00;;;;;;5037799;28;20433;-69
2022/01/26 04:05:38;;;;;;;3.88;2.80;;;22.00;59.90;;;;;;5036007;28;20044;-69
2022/01/26 04:08:11;;;;;;;7.68;3.10;;;22.10;59.90;;;;;;5036199;28;20393;-69
2022/01/26 04:11:02;;;;;;;4.75;2.90;;;22.10;60.00;;;;;;5034857;28;20034;-69
2022/01/26 04:13:27;;;;;;;5.68;2.72;;;22.00;60.00;;;;;;5034744;28;20481;-69
2022/01/26 04:15:53;;;;;;;5.78;2.60;;;22.00;59.90;;;;;;5034530;28;20036;-69
2022/01/26 04:18:25;;;;;;;4.72;2.53;;;22.00;60.00;;;;;;5032797;28;20034;-69
2022/01/26 04:20:55;;;;;;;15.10;3.22;;;22.10;60.40;;;;;;5034597;28;20033;-69
2022/01/26 04:25:50;;;;;;;4.55;2.60;;;22.10;60.10;;;;;;5034427;28;20104;-69
2022/01/26 04:28:22;;;;;;;4.85;2.85;;;22.10;60.20;;;;;;5034336;28;20053;-69
2022/01/26 04:30:48;;;;;;;8.93;3.00;;;22.10;60.10;;;;;;5032590;28;20390;-69
2022/01/26 04:33:14;;;;;;;4.18;2.70;;;22.10;60.00;;;;;;5034187;28;20025;-69
2022/01/26 04:35:43;;;;;;;5.05;2.75;;;22.10;60.00;;;;;;5034107;28;20030;-69
2022/01/26 04:43:25;;;;;;;4.65;2.70;;;22.10;59.90;;;;;;5034533;28;20025;-69
2022/01/26 04:45:50;;;;;;;4.90;2.70;;;22.10;59.90;;;;;;5033732;28;20018;-69
2022/01/26 04:48:18;;;;;;;4.20;2.70;;;22.10;60.00;;;;;;5033863;28;20429;-69
2022/01/26 04:50:44;;;;;;;5.95;2.78;;;22.10;59.90;;;;;;5015936;28;20035;-68
2022/01/26 04:53:10;;;;;;;4.15;2.67;;;22.10;60.00;;;;;;5032781;28;20112;-69
2022/01/26 04:55:36;;;;;;;4.90;3.08;;;22.10;59.80;;;;;;5033828;28;20075;-69
2022/01/26 04:58:02;;;;;;;4.72;2.75;;;22.10;60.00;;;;;;5033624;28;20090;-69
2022/01/26 05:00:28;;;;;;;4.13;2.70;;;22.10;60.00;;;;;;5032300;28;20025;-69
2022/01/26 05:02:53;;;;;;;4.28;2.55;;;22.10;60.10;;;;;;5032374;28;20025;-69
2022/01/26 05:05:19;;;;;;;6.70;3.00;;;22.10;60.00;;;;;;5032875;28;20547;-69
2022/01/26 05:07:45;;;;;;;5.72;2.80;;;22.10;60.10;;;;;;5032224;28;20032;-69
2022/01/26 05:10:10;;;;;;;6.68;2.80;;;22.10;60.10;;;;;;5033174;28;20596;-69
2022/01/26 05:12:37;;;;;;;5.32;2.70;;;22.10;60.10;;;;;;5033575;28;20036;-69
2022/01/26 05:15:04;;;;;;;6.75;2.58;;;22.10;60.00;;;;;;5033588;28;20041;-69
2022/01/26 05:17:29;;;;;;;5.80;2.83;;;22.10;60.00;;;;;;5032198;28;20040;-69
2022/01/26 05:19:58;;;;;;;5.35;2.78;;;22.20;60.10;;;;;;5031642;28;20393;-69
2022/01/26 05:22:23;;;;;;;4.95;2.38;;;22.10;60.00;;;;;;5031218;28;20052;-69
2022/01/26 05:24:49;;;;;;;3.55;2.50;;;22.10;60.00;;;;;;5033056;28;20470;-69
2022/01/26 05:27:15;;;;;;;3.90;2.58;;;22.20;60.00;;;;;;5033298;28;20029;-69
2022/01/26 05:29:41;;;;;;;5.05;2.47;;;22.20;60.00;;;;;;5032691;28;20025;-69
2022/01/26 05:32:07;;;;;;;6.30;2.47;;;22.20;60.00;;;;;;5028870;28;20571;-69
2022/01/26 05:34:32;;;;;;;3.60;2.05;;;22.20;60.00;;;;;;5031811;28;20033;-69
2022/01/26 05:36:58;;;;;;;4.15;2.40;;;22.20;59.90;;;;;;5032916;28;20060;-69
2022/01/26 05:39:24;;;;;;;5.13;2.75;;;22.20;59.90;;;;;;5032213;28;20089;-69
2022/01/26 05:41:50;;;;;;;5.60;2.50;;;22.20;59.90;;;;;;5032906;28;20040;-69
2022/01/26 05:44:15;;;;;;;3.60;2.60;;;22.20;59.90;;;;;;5031614;28;20490;-69
2022/01/26 05:46:47;;;;;;;8.15;2.50;;;22.30;59.90;;;;;;5031870;28;20032;-69
2022/01/26 05:49:16;;;;;;;3.35;2.33;;;22.30;59.80;;;;;;5032661;28;20025;-69
2022/01/26 05:51:45;;;;;;;3.72;2.33;;;22.30;59.80;;;;;;5030969;28;20026;-69
2022/01/26 05:54:11;;;;;;;4.75;2.40;;;22.30;59.70;;;;;;5031132;28;20021;-69
2022/01/26 05:56:37;;;;;;;5.78;2.30;;;22.30;59.70;;;;;;5032717;28;20037;-69
2022/01/26 05:59:03;;;;;;;8.75;2.60;;;22.30;59.60;;;;;;5032363;28;20033;-69
2022/01/26 06:01:29;;;;;;;7.32;2.72;;;22.30;59.70;;;;;;5032185;28;20017;-69
2022/01/26 06:03:54;;;;;;;6.38;2.30;;;22.30;59.70;;;;;;5030911;28;20021;-69
2022/01/26 06:06:20;;;;;;;6.03;2.50;;;22.30;59.60;;;;;;5031760;28;20021;-69
2022/01/26 06:08:46;;;;;;;7.60;2.72;;;22.30;59.50;;;;;;5030143;28;20317;-69
2022/01/26 06:11:12;;;;;;;7.82;2.50;;;22.30;59.60;;;;;;5032002;28;20040;-69
2022/01/26 06:13:37;;;;;;;3.03;2.13;;;22.30;59.60;;;;;;5031149;28;20030;-69
2022/01/26 06:16:04;;;;;;;7.63;2.75;;;22.30;59.70;;;;;;5014992;28;20038;-69
2022/01/26 06:18:30;;;;;;;5.97;2.58;;;22.30;59.60;;;;;;5030922;28;20033;-69
2022/01/26 06:20:56;;;;;;;3.20;2.35;;;22.30;59.60;;;;;;5031935;28;20021;-69
2022/01/26 06:23:25;;;;;;;5.57;2.30;;;22.30;59.60;;;;;;5030834;28;20080;-69
2022/01/26 06:25:58;;;;;;;5.53;2.60;;;22.30;59.60;;;;;;5031663;28;21409;-69
2022/01/26 06:28:26;;;;;;;5.28;2.60;;;22.30;59.60;;;;;;5032009;28;20113;-69
2022/01/26 06:30:58;;;;;;;3.80;2.40;;;22.30;59.50;;;;;;5031841;28;20395;-69
2022/01/26 06:33:25;;;;;;;4.43;2.30;;;22.30;59.60;;;;;;5031874;28;20026;-69
2022/01/26 06:35:51;;;;;;;4.00;2.30;;;22.30;59.60;;;;;;5030513;28;20044;-69
2022/01/26 06:38:17;;;;;;;4.78;2.65;;;22.30;59.60;;;;;;5031830;28;20025;-69
2022/01/26 06:40:43;;;;;;;5.95;2.67;;;22.30;59.70;;;;;;5031785;28;20207;-69
2022/01/26 06:43:12;;;;;;;5.05;2.50;;;22.30;59.50;;;;;;5030396;28;20018;-69
2022/01/26 06:45:51;;;;;;;5.22;2.33;;;22.30;59.60;;;;;;5031994;28;20021;-69
2022/01/26 06:50:43;;;;;;;3.42;2.28;;;22.30;59.60;;;;;;5031602;28;20021;-69
2022/01/26 06:53:09;;;;;;;2.88;2.30;;;22.30;59.70;;;;;;5031839;28;20021;-69
2022/01/26 06:55:36;;;;;;;3.33;2.22;;;22.30;59.70;;;;;;5030514;28;20083;-69
2022/01/26 06:58:02;;;;;;;5.82;2.40;;;22.30;59.50;;;;;;5031615;28;20056;-69
2022/01/26 07:00:28;;;;;;;5.75;2.40;;;22.30;59.70;;;;;;5031160;28;20489;-69
2022/01/26 07:02:54;;;;;;;4.57;2.63;;;22.30;59.70;;;;;;5030487;28;20022;-69
2022/01/26 07:05:21;;;;;;;3.83;2.42;;;22.40;59.70;;;;;;5031685;28;20030;-69
2022/01/26 07:07:47;;;;;;;5.90;2.60;;;22.40;59.70;;;;;;5030436;28;20486;-69
2022/01/26 07:10:13;;;;;;;4.78;2.13;;;22.40;59.70;;;;;;5030162;28;20064;-69
2022/01/26 07:12:39;;;;;;;4.00;2.40;;;22.40;59.70;;;;;;5030565;28;20068;-69
2022/01/26 07:23:05;;;;;;;3.28;2.17;;;22.40;59.50;;;;;;5011890;28;20049;-69
2022/01/26 07:25:31;;;;;;;3.80;2.15;;;22.40;59.60;;;;;;5011835;28;20030;-69
2022/01/26 07:27:57;;;;;;;5.15;2.40;;;22.40;59.60;;;;;;5011624;28;20580;-69
2022/01/26 07:30:23;;;;;;;4.32;2.28;;;22.40;59.50;;;;;;5010471;28;20387;-69
2022/01/26 07:32:49;;;;;;;5.95;2.08;;;22.30;59.70;;;;;;5018819;28;20121;-69
2022/01/26 07:35:15;;;;;;;5.07;2.50;;;22.40;60.20;;;;;;5031459;28;20037;-69
2022/01/26 07:37:43;;;;;;;6.45;2.30;;;22.40;59.70;;;;;;5030141;28;20029;-71
2022/01/26 07:40:10;;;;;;;5.57;2.78;;;22.30;59.50;;;;;;5030934;28;20508;-69
2022/01/26 07:42:37;;;;;;;4.13;2.53;;;22.40;59.70;;;;;;5030570;28;20466;-69
2022/01/26 07:45:05;;;;;;;5.18;2.53;;;22.30;60.20;;;;;;5031350;28;20026;-69
2022/01/26 07:47:32;;;;;;;4.20;2.17;;;22.40;59.70;;;;;;5034476;28;20485;-69
2022/01/26 07:49:59;;;;;;;6.40;2.42;;;22.40;59.70;;;;;;5034292;28;20025;-70
2022/01/26 07:52:26;;;;;;;4.90;2.63;;;22.40;59.70;;;;;;5035071;28;20393;-69
2022/01/26 07:54:53;;;;;;;4.00;2.40;;;22.30;59.60;;;;;;5034800;28;20025;-69
2022/01/26 07:57:20;;;;;;;4.53;2.15;;;22.40;59.70;;;;;;5023871;28;20038;-69
2022/01/26 07:59:45;;;;;;;5.05;2.30;;;22.40;59.80;;;;;;5030467;28;20018;-69
2022/01/26 08:02:11;;;;;;;23.50;3.85;;;22.40;59.70;;;;;;5026355;28;20033;-73
2022/01/26 08:04:37;;;;;;;23.85;10.93;;;22.40;58.60;;;;;;5030097;28;20040;-73
2022/01/26 08:07:03;;;;;;;25.08;12.27;;;22.10;50.80;;;;;;5028597;28;20033;-73
2022/01/26 08:09:29;;;;;;;19.77;13.10;;;21.60;47.50;;;;;;5032114;28;20478;-69
2022/01/26 08:11:55;;;;;;;18.50;11.63;;;21.30;46.30;;;;;;5034565;28;20032;-69
2022/01/26 08:14:20;;;;;;;14.15;8.45;;;21.40;48.00;;;;;;5034338;28;20509;-68
2022/01/26 08:16:46;;;;;;;14.57;8.15;;;21.50;53.00;;;;;;5034429;28;20048;-70
2022/01/26 08:19:17;;;;;;;15.63;8.02;;;21.60;52.60;;;;;;5016876;28;20022;-69
2022/01/26 08:21:43;;;;;;;25.63;8.07;;;21.70;50.80;;;;;;5033073;28;20021;-70
2022/01/26 08:24:15;;;;;;;57.53;15.32;;;21.90;52.10;;;;;;5031041;28;20075;-69
2022/01/26 08:26:49;;;;;;;53.20;13.35;;;22.00;64.30;;;;;;5020960;28;20097;-69
2022/01/26 08:29:26;;;;;;;54.90;12.65;;;22.20;65.60;;;;;;5025274;28;20013;-69
2022/01/26 08:31:51;;;;;;;52.95;12.27;;;22.20;62.60;;;;;;5029754;28;20120;-69
2022/01/26 08:34:17;;;;;;;27.02;8.73;;;22.20;62.30;;;;;;5026319;28;20554;-70
2022/01/26 08:36:43;;;;;;;15.50;6.63;;;22.20;59.40;;;;;;5030575;28;20029;-69
2022/01/26 08:39:09;;;;;;;22.83;7.55;;;22.10;55.60;;;;;;5028115;28;20051;-69
2022/01/26 08:41:35;;;;;;;18.63;7.82;;;22.20;57.80;;;;;;5020944;28;20030;-70
2022/01/26 08:44:01;;;;;;;20.75;8.65;;;22.30;57.40;;;;;;5025079;28;20021;-69
2022/01/26 08:46:26;;;;;;;22.95;8.20;;;22.40;61.70;;;;;;5028630;28;20029;-69
2022/01/26 08:48:52;;;;;;;20.40;6.95;;;22.40;59.70;;;;;;5028207;28;20109;-69
2022/01/26 08:51:18;;;;;;;20.83;5.55;;;22.30;58.50;;;;;;5029603;28;20021;-69
2022/01/26 08:53:45;;;;;;;12.85;4.80;;;22.40;57.50;;;;;;5030154;28;20100;-69
2022/01/26 08:56:11;;;;;;;18.33;5.28;;;22.40;56.60;;;;;;5012811;28;20034;-69
2022/01/26 08:58:37;;;;;;;16.13;5.45;;;22.40;56.10;;;;;;5028233;28;20039;-69
2022/01/26 09:01:03;;;;;;;14.23;5.63;;;22.40;56.10;;;;;;5028204;28;20025;-69
2022/01/26 09:03:30;;;;;;;14.43;4.93;;;22.50;56.30;;;;;;5029057;28;20048;-69
2022/01/26 09:05:56;;;;;;;14.80;4.45;;;22.40;58.00;;;;;;5025075;28;20037;-69
2022/01/26 09:08:22;;;;;;;26.52;5.32;;;22.40;57.10;;;;;;5029771;28;20022;-69
2022/01/26 09:10:53;;;;;;;16.80;5.45;;;22.40;57.90;;;;;;5025455;28;20580;-69
2022/01/26 09:13:19;;;;;;;14.48;4.53;;;22.40;57.60;;;;;;5030170;28;20597;-68
2022/01/26 09:15:44;;;;;;;14.68;4.85;;;22.40;57.30;;;;;;5031083;28;20045;-69
2022/01/26 09:18:17;;;;;;;15.35;4.88;;;22.40;57.20;;;;;;5023947;28;20486;-69
2022/01/26 09:20:43;;;;;;;10.40;3.90;;;22.40;57.30;;;;;;5032220;28;20025;-69
2022/01/26 09:23:08;;;;;;;13.57;3.72;;;22.40;57.30;;;;;;5033026;28;20033;-69
2022/01/26 09:25:35;;;;;;;11.27;3.80;;;22.40;57.40;;;;;;5032701;28;20417;-69
2022/01/26 09:28:00;;;;;;;18.48;4.15;;;22.40;57.50;;;;;;5007344;28;20497;-69
2022/01/26 09:30:26;;;;;;;10.88;4.03;;;22.40;57.60;;;;;;5020140;28;20029;-69
2022/01/26 09:32:52;;;;;;;10.55;3.95;;;22.40;57.70;;;;;;5026094;28;20033;-69
2022/01/26 09:35:18;;;;;;;12.57;4.22;;;22.40;57.80;;;;;;5031554;28;20040;-69
2022/01/26 09:37:43;;;;;;;11.35;3.78;;;22.40;57.90;;;;;;5026680;28;20076;-69
2022/01/26 09:40:10;;;;;;;11.13;3.83;;;22.40;58.00;;;;;;5028157;28;20075;-69
2022/01/26 09:42:36;;;;;;;14.18;3.92;;;22.40;58.10;;;;;;5021112;28;20025;-70
2022/01/26 09:45:08;;;;;;;13.02;3.78;;;22.40;58.10;;;;;;5032273;28;20041;-69
2022/01/26 09:47:34;;;;;;;12.25;3.72;;;22.40;58.10;;;;;;5031406;28;20100;-69
2022/01/26 09:50:02;;;;;;;9.50;4.38;;;22.40;58.20;;;;;;5031730;28;20134;-69
2022/01/26 09:52:36;;;;;;;10.38;3.95;;;22.40;58.20;;;;;;5032612;28;20021;-69
2022/01/26 09:55:05;;;;;;;8.98;3.60;;;22.40;58.20;;;;;;5030298;28;20025;-69
2022/01/26 09:57:31;;;;;;;11.40;4.00;;;22.30;58.20;;;;;;5025717;28;20029;-69
2022/01/26 10:00:00;;;;;;;12.75;3.80;;;22.40;58.30;;;;;;5031391;28;20402;-69
2022/01/26 10:02:30;;;;;;;9.90;3.70;;;22.40;58.30;;;;;;5030347;28;20029;-69
2022/01/26 10:05:02;;;;;;;19.92;3.85;;;22.40;58.40;;;;;;5005780;28;20037;-70
2022/01/26 10:18:14;;;;;;;11.38;6.25;;;21.20;46.40;;;;;;5030880;28;20486;-69
2022/01/26 10:20:42;;;;;;;10.18;5.47;;;21.40;55.20;;;;;;5029718;28;20083;-69
2022/01/26 10:23:13;;;;;;;17.35;6.20;;;21.60;50.60;;;;;;5028445;28;20026;-70
2022/01/26 10:25:41;;;;;;;11.10;5.38;;;21.80;50.20;;;;;;5031427;28;20021;-69
2022/01/26 10:28:11;;;;;;;16.55;5.47;;;21.90;49.70;;;;;;5013835;28;20087;-69
2022/01/26 10:30:37;;;;;;;18.00;4.80;;;22.00;50.90;;;;;;5022285;28;20033;-69
2022/01/26 10:33:09;;;;;;;15.93;4.38;;;22.10;50.10;;;;;;5024869;28;20029;-69
2022/01/26 10:35:34;;;;;;;19.67;4.72;;;22.10;49.80;;;;;;5025548;28;20060;-71
2022/01/26 10:38:00;;;;;;;22.38;4.35;;;22.20;50.00;;;;;;5028864;28;20029;-70
2022/01/26 10:40:28;;;;;;;17.25;4.25;;;22.20;51.20;;;;;;5023524;28;20025;-70
2022/01/26 10:43:00;;;;;;;13.98;3.70;;;22.20;51.60;;;;;;5031834;28;20013;-70
2022/01/26 10:45:36;;;;;;;20.10;3.45;;;22.30;51.60;;;;;;5029554;28;20108;-70
2022/01/26 10:48:17;;;;;;;16.13;3.58;;;22.30;51.80;;;;;;5031743;28;20542;-73
2022/01/26 10:50:48;;;;;;;16.70;3.45;;;22.30;52.20;;;;;;5030744;28;20025;-73
2022/01/26 10:53:17;;;;;;;14.82;4.05;;;22.30;52.40;;;;;;5022025;28;20406;-71
2022/01/26 10:55:43;;;;;;;19.13;4.15;;;22.20;52.60;;;;;;5021493;28;20105;-70
2022/01/26 10:58:09;;;;;;;14.20;4.75;;;22.20;52.30;;;;;;5031247;28;20030;-70
2022/01/26 11:00:37;;;;;;;9.40;4.80;;;22.20;52.00;;;;;;5030383;28;20547;-70
2022/01/26 11:03:05;;;;;;;12.65;5.32;;;22.20;51.90;;;;;;5029871;28;20107;-70
2022/01/26 11:05:30;;;;;;;13.35;4.45;;;22.30;52.10;;;;;;5027597;28;20144;-70
2022/01/26 11:07:58;;;;;;;20.27;4.40;;;22.30;52.20;;;;;;5026678;28;20120;-70
2022/01/26 11:10:35;;;;;;;16.70;5.50;;;22.30;52.50;;;;;;5024645;28;20052;-70
2022/01/26 11:13:01;;;;;;;18.75;5.38;;;22.30;52.80;;;;;;5022600;28;20033;-70
2022/01/26 11:15:26;;;;;;;11.38;4.07;;;22.30;53.40;;;;;;5027691;28;20029;-71
2022/01/26 11:18:04;;;;;;;14.13;4.72;;;22.30;53.00;;;;;;5030389;28;20048;-71
2022/01/26 11:20:34;;;;;;;15.98;4.78;;;22.30;54.00;;;;;;5028296;28;20481;-70
2022/01/26 11:23:02;;;;;;;12.57;4.40;;;22.30;54.10;;;;;;5032467;28;20069;-70
2022/01/26 11:25:38;;;;;;;17.60;5.75;;;22.40;53.80;;;;;;5034872;28;20018;-70
2022/01/26 11:28:25;;;;;;;19.52;5.43;;;22.40;54.20;;;;;;5033381;28;20033;-70
2022/01/26 11:30:53;;;;;;;20.02;6.68;;;22.40;54.10;;;;;;5028368;28;20104;-70
2022/01/26 11:33:25;;;;;;;13.40;4.22;;;22.40;54.30;;;;;;5033047;28;20036;-70
2022/01/26 11:35:53;;;;;;;16.75;5.30;;;22.40;53.90;;;;;;5027276;28;20030;-70
2022/01/26 11:38:50;;;;;;;21.15;8.20;;;22.40;54.10;;;;;;5034763;28;20123;-70
2022/01/26 11:47:18;;;;;;;17.88;7.20;;;22.00;50.10;;;;;;5034199;28;20079;-70
2022/01/26 11:49:46;;;;;;;18.27;6.20;;;22.10;50.10;;;;;;5033757;28;20021;-70
2022/01/26 11:52:24;;;;;;;27.92;7.60;;;22.20;49.90;;;;;;5033519;28;20389;-70
2022/01/26 11:54:52;;;;;;;18.95;7.35;;;22.30;50.00;;;;;;5032702;28;20034;-70
2022/01/26 11:57:22;;;;;;;16.85;7.20;;;22.40;50.20;;;;;;5034516;28;20028;-70
2022/01/26 12:00:04;;;;;;;19.05;6.45;;;22.40;50.10;;;;;;5033649;28;20363;-70
2022/01/26 12:05:19;;;;;;;20.35;6.82;;;22.40;50.70;;;;;;5025906;28;20021;-70
2022/01/26 12:07:56;;;;;;;17.65;6.57;;;22.50;50.50;;;;;;5026915;28;20068;-70
2022/01/26 12:10:28;;;;;;;18.38;6.28;;;22.40;50.60;;;;;;5030457;28;20061;-70
2022/01/26 12:13:07;;;;;;;14.18;5.75;;;22.40;50.60;;;;;;5034018;28;20044;-70
2022/01/26 12:15:52;;;;;;;17.05;5.93;;;22.40;50.60;;;;;;5026395;28;20108;-70
2022/01/26 12:33:43;;;;;;;20.38;6.88;;;22.50;51.30;;;;;;5026004;28;20037;-71
2022/01/26 12:43:54;;;;;;;18.80;6.70;;;22.50;51.60;;;;;;5031942;28;20021;-70
2022/01/26 12:46:30;;;;;;;18.05;6.45;;;22.50;51.60;;;;;;5022129;28;20030;-70
2022/01/26 12:48:59;;;;;;;19.08;6.80;;;22.50;51.70;;;;;;5012974;28;20036;-70
2022/01/26 12:51:26;;;;;;;18.30;7.10;;;22.50;51.70;;;;;;5029562;28;20040;-71
2022/01/26 12:53:56;;;;;;;19.27;7.18;;;22.50;51.70;;;;;;5032598;28;20030;-71
2022/01/26 12:56:25;;;;;;;17.45;6.85;;;22.50;51.80;;;;;;5000952;28;20037;-71
2022/01/26 12:59:05;;;;;;;27.20;7.72;;;22.40;52.20;;;;;;5028759;28;20052;-70
2022/01/26 13:01:31;;;;;;;24.85;7.30;;;22.40;52.80;;;;;;5039212;28;20311;-70
2022/01/26 13:04:03;;;;;;;24.63;7.70;;;22.40;53.40;;;;;;5027009;28;20029;-71
2022/01/26 13:06:37;;;;;;;35.35;8.13;;;22.40;53.60;;;;;;5021309;28;20026;-70
2022/01/26 13:09:18;;;;;;;23.50;7.32;;;22.40;53.90;;;;;;5022259;28;20026;-70
2022/01/26 13:11:47;;;;;;;27.30;8.38;;;22.30;52.90;;;;;;5042504;28;20033;-71
2022/01/26 13:14:22;;;;;;;23.13;7.43;;;22.20;52.70;;;;;;5026297;28;20482;-68
2022/01/26 13:17:14;;;;;;;19.88;7.72;;;22.10;52.80;;;;;;5031643;28;20033;-69
2022/01/26 13:20:01;;;;;;;18.20;5.95;;;22.10;51.50;;;;;;5028482;28;20441;-69
2022/01/26 13:25:08;;;;;;;19.83;6.67;;;22.10;51.00;;;;;;5029103;28;20051;-71
2022/01/26 13:27:52;;;;;;;19.10;6.35;;;22.10;49.90;;;;;;5027685;28;20276;-70
2022/01/26 13:30:43;;;;;;;17.73;5.90;;;22.20;50.00;;;;;;5031595;28;20036;-70
2022/01/26 13:36:04;;;;;;;15.15;6.32;;;22.00;48.30;;;;;;5031472;28;20394;-70
2022/01/26 13:44:01;;;;;;;14.75;6.60;;;21.80;47.50;;;;;;5031972;28;20022;-70
2022/01/26 13:54:47;;;;;;;15.68;6.97;;;21.80;46.00;;;;;;5004654;28;20025;-70
2022/01/26 14:00:18;;;;;;;19.50;8.55;;;21.70;45.50;;;;;;4970023;28;20033;-70
2022/01/26 14:02:45;;;;;;;16.88;8.40;;;21.60;45.10;;;;;;4981640;28;20030;-71
2022/01/26 14:05:12;;;;;;;17.45;7.95;;;21.50;44.60;;;;;;4989792;28;20126;-71
2022/01/26 14:07:38;;;;;;;19.40;8.50;;;21.50;44.80;;;;;;4983223;28;20030;-71
2022/01/26 14:10:04;;;;;;;19.45;9.02;;;21.60;45.40;;;;;;4983114;28;20369;-69
2022/01/26 14:12:35;;;;;;;20.45;11.90;;;21.60;45.90;;;;;;5001813;28;20027;-70
2022/01/26 14:15:06;;;;;;;21.35;13.30;;;20.00;40.40;;;;;;5008634;28;20030;-70
2022/01/26 14:17:43;;;;;;;24.17;12.77;;;19.50;38.90;;;;;;4990878;28;20031;-72
2022/01/26 14:23:13;;;;;;;21.23;9.75;;;20.10;42.80;;;;;;4987637;28;20498;-72
2022/01/26 14:25:29;;;;;;;16.33;9.10;;;20.50;43.70;;;;;;4987463;28;20026;-71
2022/01/26 14:28:02;;;;;;;14.93;8.68;;;20.90;43.60;;;;;;4988620;28;20038;-71
2022/01/26 14:30:43;;;;;;;16.08;8.48;;;21.10;43.30;;;;;;4987070;28;20038;-71
2022/01/26 14:36:22;;;;;;;12.75;6.70;;;21.40;44.30;;;;;;4988300;28;20027;-72
2022/01/26 15:08:40;;;;;;;9.98;4.85;;;22.00;48.00;;;;;;4991014;28;20029;-72
2022/01/26 15:20:49;;;;;;;10.25;4.72;;;22.10;49.50;;;;;;4985556;28;20031;-72
2022/01/26 15:29:56;;;;;;;8.25;4.55;;;22.10;49.70;;;;;;4991929;28;20477;-72
2022/01/26 15:33:35;;;;;;;36.92;26.45;;;21.50;46.80;;;;;;4992083;28;20034;-72
2022/01/26 15:42:06;;;;;;;41.08;29.17;;;21.70;45.80;;;;;;4987482;28;20022;-71
2022/01/26 15:44:46;;;;;;;36.28;26.90;;;21.80;45.70;;;;;;4988574;28;20061;-72
2022/01/26 15:50:09;;;;;;;34.20;24.17;;;21.90;46.30;;;;;;4990388;28;20046;-72
2022/01/26 16:12:38;;;;;;;31.40;22.17;;;22.10;47.80;;;;;;4989669;28;20112;-72
2022/01/26 17:43:39;;;;;;;24.27;16.65;;;22.30;50.70;;;;;;5005379;28;20034;-72
2022/01/26 18:06:26;;;;;;;23.88;15.43;;;22.30;50.90;;;;;;4988953;28;20469;-72
2022/01/26 18:16:32;;;;;;;36.73;25.67;;;21.80;47.70;;;;;;4982422;28;20034;-73
2022/01/26 18:46:22;;;;;;;28.92;19.23;;;22.20;50.10;;;;;;4978911;28;20023;-73
2022/01/26 18:46:56;;;;;;;26.50;18.38;;;22.30;50.10;;;;;;4977814;28;20027;-73
2022/01/26 18:49:13;;;;;;;26.50;18.23;;;22.30;50.60;;;;;;4990799;28;20536;-73
2022/01/26 18:51:47;;;;;;;24.38;17.70;;;22.30;51.00;;;;;;5007179;28;20395;-73
2022/01/26 18:54:12;;;;;;;26.35;17.67;;;22.30;50.80;;;;;;4973116;28;20027;-73
2022/01/26 18:56:42;;;;;;;28.80;16.95;;;22.30;50.90;;;;;;4973014;28;20369;-73
2022/01/26 18:59:10;;;;;;;26.95;17.70;;;22.30;51.20;;;;;;4972331;28;20082;-73
2022/01/26 19:01:36;;;;;;;24.75;16.50;;;22.30;52.10;;;;;;4972473;28;20132;-73
2022/01/26 19:04:03;;;;;;;22.20;16.00;;;22.30;52.20;;;;;;4990622;28;20030;-73
2022/01/26 19:06:29;;;;;;;23.50;15.88;;;22.30;52.00;;;;;;4973606;28;20029;-73
2022/01/26 19:08:55;;;;;;;25.50;15.52;;;22.30;51.60;;;;;;4990971;28;20395;-73
2022/01/26 19:11:22;;;;;;;24.45;15.70;;;22.30;54.10;;;;;;4991781;28;20046;-73
2022/01/26 19:13:53;;;;;;;25.02;16.73;;;22.30;52.70;;;;;;4970514;28;20030;-73